createdAt,value
2024-05-09T00:03:51.355Z,63.81
2024-05-09T00:13:56.356Z,63.49
2024-05-09T00:24:03.858Z,63.86
2024-05-09T00:34:08.959Z,64.06
2024-05-09T00:44:16.702Z,64.19
2024-05-09T00:54:22.045Z,64.12
2024-05-09T01:04:29.554Z,64.55
2024-05-09T01:14:34.477Z,64.49
2024-05-09T01:24:41.969Z,64.79
2024-05-09T01:34:46.902Z,64.46
2024-05-09T01:44:54.452Z,64.45
2024-05-09T01:55:00.763Z,64.80
2024-05-09T02:05:10.615Z,64.96
2024-05-09T02:15:15.743Z,64.46
2024-05-09T02:25:24.931Z,64.55
2024-05-09T02:35:29.994Z,64.34
2024-05-09T02:45:37.506Z,64.37
2024-05-09T02:55:43.152Z,64.35
2024-05-09T03:05:50.888Z,64.15
2024-05-09T03:15:56.122Z,63.79
2024-05-09T03:26:03.645Z,63.85
2024-05-09T03:36:11.315Z,63.73
2024-05-09T03:46:18.958Z,63.86
2024-05-09T03:56:23.971Z,63.89
2024-05-09T04:06:31.550Z,64.23
2024-05-09T04:16:36.340Z,64.13
2024-05-09T04:26:43.928Z,63.90
2024-05-09T04:36:48.799Z,63.77
2024-05-09T04:46:56.376Z,63.44
2024-05-09T04:57:01.208Z,63.66
2024-05-09T05:07:08.679Z,63.79
2024-05-09T05:17:13.509Z,63.32
2024-05-09T05:27:21.078Z,63.04
2024-05-09T05:37:26.048Z,61.86
2024-05-09T05:47:33.628Z,62.29
2024-05-09T05:57:38.524Z,62.13
2024-05-09T06:07:46.027Z,62.21
2024-05-09T06:17:50.960Z,61.21
2024-05-09T06:27:58.491Z,60.73
2024-05-09T06:38:03.354Z,60.73
2024-05-09T06:48:12.314Z,58.51
2024-05-09T06:58:17.427Z,59.55
2024-05-09T07:08:24.967Z,58.48
2024-05-09T07:18:29.965Z,57.98
2024-05-09T07:28:37.544Z,58.35
2024-05-09T07:38:42.478Z,58.47
2024-05-09T07:58:58.860Z,58.00
2024-05-09T08:09:10.968Z,57.10
2024-05-09T08:19:18.743Z,56.92
2024-05-09T08:29:26.355Z,56.26
2024-05-09T08:39:31.218Z,54.41
2024-05-09T08:49:41.495Z,51.67
2024-05-09T08:59:51.554Z,51.40
2024-05-09T09:09:59.414Z,51.33
2024-05-09T09:20:05.318Z,50.98
2024-05-09T09:30:27.761Z,49.99
2024-05-09T09:40:44.801Z,49.22
2024-05-09T09:50:58.184Z,47.88
2024-05-09T10:01:03.190Z,46.96
2024-05-09T10:11:11.016Z,46.21
2024-05-09T10:21:19.419Z,45.11
2024-05-09T10:31:30.899Z,44.25
2024-05-09T10:41:36.367Z,43.84
2024-05-09T10:51:44.638Z,42.79
2024-05-09T11:01:49.810Z,40.65
2024-05-09T11:11:57.599Z,40.64
2024-05-09T11:22:02.746Z,38.55
2024-05-09T11:32:11.763Z,35.57
2024-05-09T11:42:17.639Z,35.21
2024-05-09T11:52:25.177Z,33.95
2024-05-09T12:02:30.075Z,33.24
2024-05-09T12:12:37.700Z,33.59
2024-05-09T12:22:42.537Z,35.19
2024-05-09T12:32:50.319Z,35.29
2024-05-09T12:42:55.248Z,34.93
2024-05-09T12:53:03.884Z,35.58
2024-05-09T13:03:10.680Z,35.43
2024-05-09T13:13:18.666Z,35.99
2024-05-09T13:23:23.518Z,35.12
2024-05-09T13:33:31.334Z,33.42
2024-05-09T13:43:36.250Z,34.49
2024-05-09T13:53:43.790Z,34.52
2024-05-09T14:03:48.791Z,33.62
2024-05-09T14:13:56.492Z,33.50
2024-05-09T14:24:01.425Z,31.95
2024-05-09T14:34:09.232Z,30.94
2024-05-09T14:44:14.336Z,30.71
2024-05-09T14:54:21.890Z,28.16
2024-05-09T15:04:27.092Z,29.54
2024-05-09T15:14:34.740Z,30.14
2024-05-09T15:24:41.637Z,30.84
2024-05-09T15:34:49.507Z,31.41
2024-05-09T15:44:54.856Z,31.80
2024-05-09T15:55:02.437Z,33.22
2024-05-09T16:05:07.795Z,33.87
2024-05-09T16:15:15.567Z,33.89
2024-05-09T16:25:21.071Z,33.61
2024-05-09T16:35:28.624Z,34.17
2024-05-09T16:45:33.725Z,34.76
2024-05-09T16:55:41.426Z,35.08
2024-05-09T17:05:47.463Z,36.05
2024-05-09T17:15:55.594Z,36.62
2024-05-09T17:26:00.520Z,37.29
2024-05-09T17:36:08.478Z,37.54
2024-05-09T17:46:13.974Z,38.43
2024-05-09T17:56:21.643Z,38.58
2024-05-09T18:06:26.471Z,39.55
2024-05-09T18:16:34.034Z,41.03
2024-05-09T18:26:39.115Z,41.60
2024-05-09T18:36:46.866Z,42.10
2024-05-09T18:46:56.737Z,42.12
2024-05-09T18:57:06.114Z,42.35
2024-05-09T19:07:12.666Z,41.91
2024-05-09T19:17:20.304Z,42.07
2024-05-09T19:27:25.723Z,41.54
2024-05-09T19:37:33.459Z,42.19
2024-05-09T19:47:38.445Z,42.12
2024-05-09T19:57:46.060Z,42.53
2024-05-09T20:07:50.882Z,42.71
2024-05-09T20:17:58.721Z,43.25
2024-05-09T20:28:03.994Z,43.35
2024-05-09T20:38:11.609Z,43.97
2024-05-09T20:48:16.627Z,43.78
2024-05-09T20:58:24.501Z,44.19
2024-05-09T21:08:29.673Z,44.57
2024-05-09T21:18:38.232Z,44.40
2024-05-09T21:28:43.417Z,44.76
2024-05-09T21:38:50.949Z,44.72
2024-05-09T21:48:56.020Z,45.08
2024-05-09T21:59:03.563Z,45.16
2024-05-09T22:09:08.441Z,45.40
2024-05-09T22:19:16.077Z,47.28
2024-05-09T22:29:20.995Z,47.26
2024-05-09T22:39:28.484Z,47.56
2024-05-09T22:49:33.384Z,47.51
2024-05-09T22:59:40.923Z,47.93
2024-05-09T23:09:47.680Z,47.49
2024-05-09T23:19:55.184Z,47.61
2024-05-09T23:30:00.540Z,47.82
2024-05-09T23:40:09.726Z,47.74
2024-05-09T23:50:20.513Z,47.27
